createdAt,value
2023-05-20T00:00:53.832Z,6.68
2023-05-20T00:02:55.923Z,6.78
2023-05-20T00:04:57.906Z,7.20
2023-05-20T00:06:59.886Z,6.32
2023-05-20T00:09:01.868Z,6.50
2023-05-20T00:11:03.821Z,6.32
2023-05-20T00:13:06.638Z,6.90
2023-05-20T00:15:09.298Z,6.78
2023-05-20T00:17:11.219Z,6.53
2023-05-20T00:19:13.317Z,6.87
2023-05-20T00:21:15.250Z,7.05
2023-05-20T00:23:17.158Z,7.00
2023-05-20T00:25:19.097Z,6.30
2023-05-20T00:27:23.648Z,6.22
2023-05-20T00:29:25.596Z,6.38
2023-05-20T00:31:27.497Z,6.88
2023-05-20T00:33:29.300Z,7.38
2023-05-20T00:35:31.161Z,6.80
2023-05-20T00:37:33.142Z,7.17
2023-05-20T00:39:35.125Z,6.65
2023-05-20T00:41:37.024Z,6.95
2023-05-20T00:43:38.924Z,6.43
2023-05-20T00:45:41.295Z,6.57
2023-05-20T00:47:43.687Z,6.40
2023-05-20T00:49:48.175Z,7.68
2023-05-20T00:51:52.228Z,7.60
2023-05-20T00:53:54.893Z,7.07
2023-05-20T00:55:57.008Z,7.03
2023-05-20T00:57:59.307Z,6.57
2023-05-20T01:00:01.378Z,6.90
2023-05-20T01:02:04.342Z,7.65
2023-05-20T01:04:06.389Z,6.82
2023-05-20T01:06:08.408Z,7.28
2023-05-20T01:08:10.359Z,6.95
2023-05-20T01:10:12.333Z,7.83
2023-05-20T01:12:21.677Z,6.90
2023-05-20T01:14:27.219Z,6.72
2023-05-20T01:16:34.166Z,7.50
2023-05-20T01:18:37.293Z,7.13
2023-05-20T01:20:39.537Z,7.68
2023-05-20T01:22:48.088Z,8.00
2023-05-20T01:24:53.494Z,7.70
2023-05-20T01:26:58.227Z,7.70
2023-05-20T01:29:04.455Z,8.65
2023-05-20T01:31:14.712Z,8.05
2023-05-20T01:33:20.345Z,8.63
2023-05-20T01:35:23.921Z,7.60
2023-05-20T01:37:27.495Z,8.50
2023-05-20T01:39:31.004Z,9.07
2023-05-20T01:41:35.690Z,8.88
2023-05-20T01:43:39.240Z,9.23
2023-05-20T01:45:44.127Z,8.98
2023-05-20T01:47:46.451Z,8.60
2023-05-20T01:49:49.605Z,8.80
2023-05-20T01:51:51.527Z,9.45
2023-05-20T01:53:53.334Z,9.10
2023-05-20T01:55:55.190Z,8.27
2023-05-20T01:57:57.079Z,8.07
2023-05-20T01:59:58.886Z,7.97
2023-05-20T02:02:00.855Z,8.27
2023-05-20T02:04:02.759Z,9.00
2023-05-20T02:06:04.685Z,9.03
2023-05-20T02:08:06.921Z,9.25
2023-05-20T02:10:09.216Z,8.90
2023-05-20T02:12:16.459Z,9.60
2023-05-20T02:14:18.334Z,8.40
2023-05-20T02:16:20.199Z,9.63
2023-05-20T02:18:22.528Z,10.13
2023-05-20T02:20:24.371Z,10.90
2023-05-20T02:22:26.206Z,10.57
2023-05-20T02:24:28.014Z,10.63
2023-05-20T02:26:30.027Z,11.02
2023-05-20T02:28:31.926Z,10.52
2023-05-20T02:30:33.814Z,10.83
2023-05-20T02:32:35.911Z,10.30
2023-05-20T02:34:37.825Z,10.63
2023-05-20T02:36:39.685Z,12.07
2023-05-20T02:38:41.546Z,11.63
2023-05-20T02:40:46.506Z,12.67
2023-05-20T02:42:48.378Z,12.60
2023-05-20T02:44:50.343Z,12.13
2023-05-20T02:46:52.368Z,13.48
2023-05-20T02:48:54.244Z,13.00
2023-05-20T02:50:56.204Z,12.90
2023-05-20T02:52:58.239Z,13.55
2023-05-20T02:55:00.579Z,12.57
2023-05-20T02:57:03.435Z,13.05
2023-05-20T02:59:07.203Z,13.07
2023-05-20T03:01:09.139Z,13.35
2023-05-20T03:03:11.220Z,14.05
2023-05-20T03:05:13.640Z,13.60
2023-05-20T03:07:19.450Z,13.27
2023-05-20T03:09:24.072Z,13.60
2023-05-20T03:11:26.303Z,13.55
2023-05-20T03:13:28.411Z,14.60
2023-05-20T03:15:30.807Z,12.57
2023-05-20T03:17:32.769Z,13.73
2023-05-20T03:19:34.642Z,13.45
2023-05-20T03:21:36.689Z,13.93
2023-05-20T03:23:38.511Z,13.68
2023-05-20T03:25:41.096Z,13.90
2023-05-20T03:27:44.714Z,13.80
2023-05-20T03:29:48.217Z,13.88
2023-05-20T03:31:50.229Z,13.93
2023-05-20T03:33:52.052Z,14.40
2023-05-20T03:35:53.931Z,14.97
2023-05-20T03:37:56.329Z,14.68
2023-05-20T03:39:58.153Z,16.48
2023-05-20T03:42:00.064Z,15.38
2023-05-20T03:44:02.062Z,16.05
2023-05-20T03:46:03.966Z,18.98
2023-05-20T03:48:06.207Z,17.87
2023-05-20T03:50:08.431Z,18.67
2023-05-20T03:52:10.235Z,18.25
2023-05-20T03:54:12.211Z,20.65
2023-05-20T03:56:14.034Z,19.50
2023-05-20T03:58:15.906Z,19.33
2023-05-20T04:00:18.779Z,20.03
2023-05-20T04:02:21.285Z,19.50
2023-05-20T04:04:23.421Z,19.65
2023-05-20T04:06:26.667Z,21.05
2023-05-20T04:08:28.997Z,21.77
2023-05-20T04:10:32.301Z,21.70
2023-05-20T04:12:36.030Z,21.20
2023-05-20T04:14:38.976Z,22.33
2023-05-20T04:16:41.073Z,21.75
2023-05-20T04:18:46.064Z,22.95
2023-05-20T04:20:48.470Z,22.73
2023-05-20T04:22:50.735Z,23.30
2023-05-20T04:24:52.769Z,23.85
2023-05-20T04:26:54.733Z,25.60
2023-05-20T04:28:59.094Z,24.55
2023-05-20T04:31:04.455Z,23.42
2023-05-20T04:33:06.486Z,23.80
2023-05-20T04:35:11.888Z,25.23
2023-05-20T04:37:14.301Z,22.73
2023-05-20T04:39:16.079Z,25.00
2023-05-20T04:41:17.841Z,24.08
2023-05-20T04:43:19.632Z,23.25
2023-05-20T04:45:23.326Z,24.17
2023-05-20T04:47:25.599Z,23.63
2023-05-20T04:49:29.893Z,23.23
2023-05-20T04:51:31.743Z,22.00
2023-05-20T04:53:34.093Z,22.87
2023-05-20T04:55:37.408Z,23.50
2023-05-20T04:57:43.640Z,22.10
2023-05-20T04:59:45.681Z,22.77
2023-05-20T05:01:47.501Z,21.70
2023-05-20T05:03:49.313Z,22.37
2023-05-20T05:05:51.613Z,23.17
2023-05-20T05:07:53.440Z,23.30
2023-05-20T05:09:55.356Z,23.70
2023-05-20T05:11:57.256Z,19.67
2023-05-20T05:13:59.065Z,22.40
2023-05-20T05:16:02.262Z,22.07
2023-05-20T05:18:04.593Z,22.90
2023-05-20T05:20:08.623Z,22.88
2023-05-20T05:22:10.588Z,22.73
2023-05-20T05:24:12.415Z,22.13
2023-05-20T05:26:14.367Z,22.15
2023-05-20T05:28:16.173Z,22.65
2023-05-20T05:30:18.385Z,24.50
2023-05-20T05:32:20.363Z,25.42
2023-05-20T05:34:22.251Z,25.48
2023-05-20T05:36:25.915Z,25.33
2023-05-20T05:38:27.770Z,24.65
2023-05-20T05:40:29.591Z,23.77
2023-05-20T05:42:31.541Z,24.47
2023-05-20T05:44:33.318Z,24.13
2023-05-20T05:46:35.151Z,24.35
2023-05-20T05:48:37.496Z,23.47
2023-05-20T05:50:39.437Z,23.67
2023-05-20T05:52:41.311Z,23.40
2023-05-20T05:54:43.147Z,24.77
2023-05-20T05:56:44.953Z,23.33
2023-05-20T05:58:48.408Z,24.23
2023-05-20T06:00:54.574Z,23.23
2023-05-20T06:02:56.776Z,22.20
2023-05-20T06:04:58.672Z,20.45
2023-05-20T06:07:00.634Z,19.57
2023-05-20T06:09:02.570Z,19.00
2023-05-20T06:11:04.555Z,17.97
2023-05-20T06:13:06.468Z,17.40
2023-05-20T06:15:08.751Z,18.40
2023-05-20T06:17:10.663Z,18.75
2023-05-20T06:19:12.551Z,17.33
2023-05-20T06:21:14.363Z,18.73
2023-05-20T06:23:16.167Z,17.42
2023-05-20T06:25:18.018Z,16.97
2023-05-20T06:27:19.832Z,17.70
2023-05-20T06:29:21.756Z,17.77
2023-05-20T06:31:23.655Z,18.80
2023-05-20T06:33:27.153Z,17.70
2023-05-20T06:35:29.342Z,18.83
2023-05-20T06:37:31.294Z,19.52
2023-05-20T06:39:33.103Z,19.20
2023-05-20T06:41:34.879Z,17.10
2023-05-20T06:43:36.717Z,19.08
2023-05-20T06:45:38.561Z,19.33
2023-05-20T06:47:40.415Z,18.50
2023-05-20T06:49:46.473Z,19.03
2023-05-20T06:51:49.225Z,17.67
2023-05-20T06:53:51.437Z,17.65
2023-05-20T06:55:56.175Z,18.17
2023-05-20T06:57:57.987Z,18.92
2023-05-20T06:59:59.787Z,18.30
2023-05-20T07:02:01.967Z,17.75
2023-05-20T07:04:04.122Z,18.23
2023-05-20T07:06:06.259Z,18.52
2023-05-20T07:08:08.356Z,18.70
2023-05-20T07:10:10.263Z,18.67
2023-05-20T07:12:12.081Z,20.47
2023-05-20T07:14:13.954Z,19.53
2023-05-20T07:16:15.808Z,20.13
2023-05-20T07:18:17.705Z,19.40
2023-05-20T07:20:19.651Z,18.90
2023-05-20T07:22:21.459Z,20.00
2023-05-20T07:24:23.303Z,20.60
2023-05-20T07:26:25.179Z,19.07
2023-05-20T07:28:27.149Z,18.13
2023-05-20T07:30:29.172Z,19.63
2023-05-20T07:32:31.064Z,17.27
2023-05-20T07:34:32.905Z,18.40
2023-05-20T07:36:34.912Z,17.07
2023-05-20T07:38:38.528Z,17.00
2023-05-20T07:40:42.020Z,17.40
2023-05-20T07:42:43.941Z,16.63
2023-05-20T07:44:45.852Z,16.37
2023-05-20T07:46:47.926Z,15.67
2023-05-20T07:48:49.902Z,15.05
2023-05-20T07:50:52.536Z,16.38
2023-05-20T07:52:56.362Z,15.75
2023-05-20T07:54:58.746Z,16.73
2023-05-20T07:57:01.087Z,16.40
2023-05-20T07:59:03.451Z,15.55
2023-05-20T08:01:05.403Z,15.80
2023-05-20T08:03:08.453Z,15.90
2023-05-20T08:05:10.570Z,14.90
2023-05-20T08:07:12.460Z,14.68
2023-05-20T08:09:14.498Z,14.83
2023-05-20T08:11:16.484Z,15.15
2023-05-20T08:13:18.486Z,14.27
2023-05-20T08:15:20.375Z,14.27
2023-05-20T08:17:22.225Z,13.83
2023-05-20T08:19:24.138Z,14.00
2023-05-20T08:21:26.024Z,14.02
2023-05-20T08:23:27.901Z,14.00
2023-05-20T08:25:30.734Z,13.57
2023-05-20T08:29:34.467Z,12.85
2023-05-20T08:31:36.390Z,13.20
2023-05-20T08:33:38.350Z,11.30
2023-05-20T08:35:40.772Z,12.93
2023-05-20T08:37:42.613Z,12.88
2023-05-20T08:39:46.635Z,12.40
2023-05-20T08:41:48.731Z,11.35
2023-05-20T08:43:52.255Z,11.02
2023-05-20T08:45:55.001Z,11.18
2023-05-20T08:49:59.819Z,11.38
2023-05-20T08:52:01.704Z,9.97
2023-05-20T08:54:03.980Z,8.83
2023-05-20T08:56:06.232Z,9.15
2023-05-20T08:58:08.330Z,9.27
2023-05-20T09:00:13.496Z,9.10
2023-05-20T09:02:15.820Z,8.40
2023-05-20T09:04:18.515Z,8.00
2023-05-20T09:06:20.441Z,7.88
2023-05-20T09:08:28.038Z,8.33
2023-05-20T09:10:30.198Z,8.50
2023-05-20T09:12:31.987Z,7.70
2023-05-20T09:14:33.820Z,6.20
2023-05-20T09:16:36.391Z,6.63
2023-05-20T09:18:41.678Z,6.10
2023-05-20T09:20:46.309Z,6.07
2023-05-20T09:22:53.264Z,6.93
2023-05-20T09:24:55.915Z,6.72
2023-05-20T09:26:58.749Z,6.22
2023-05-20T09:29:00.760Z,5.95
2023-05-20T09:31:02.640Z,5.80
2023-05-20T09:33:06.060Z,5.55
2023-05-20T09:35:08.373Z,5.97
2023-05-20T09:37:11.052Z,5.93
2023-05-20T09:41:17.144Z,5.00
2023-05-20T09:43:19.178Z,4.60
2023-05-20T09:45:24.703Z,4.70
2023-05-20T09:47:27.989Z,5.18
2023-05-20T09:49:32.105Z,4.80
2023-05-20T09:51:34.500Z,5.00
2023-05-20T09:53:36.677Z,5.22
2023-05-20T09:55:38.848Z,5.00
2023-05-20T09:57:40.665Z,5.00
2023-05-20T09:59:43.088Z,5.17
2023-05-20T10:01:46.127Z,4.13
2023-05-20T10:03:48.613Z,4.25
2023-05-20T10:05:57.173Z,4.38
2023-05-20T10:08:21.189Z,3.80
2023-05-20T10:10:30.333Z,4.30
2023-05-20T10:13:04.777Z,4.55
2023-05-20T10:15:06.764Z,3.97
2023-05-20T10:17:24.373Z,4.80
2023-05-20T10:19:32.532Z,4.10
2023-05-20T10:21:34.569Z,5.30
2023-05-20T10:23:36.800Z,3.88
2023-05-20T10:25:38.642Z,4.15
2023-05-20T10:27:47.975Z,4.27
2023-05-20T10:29:55.729Z,4.00
2023-05-20T10:31:57.771Z,6.38
2023-05-20T10:33:59.816Z,4.57
2023-05-20T10:36:02.585Z,3.90
2023-05-20T10:38:12.221Z,3.90
2023-05-20T10:40:16.169Z,3.78
2023-05-20T10:42:29.377Z,4.30
2023-05-20T10:44:43.649Z,4.28
2023-05-20T10:47:03.923Z,5.47
2023-05-20T10:49:19.517Z,4.43
2023-05-20T10:51:22.224Z,4.35
2023-05-20T10:53:33.518Z,4.03
2023-05-20T10:55:38.630Z,4.35
2023-05-20T10:57:41.109Z,4.18
2023-05-20T10:59:43.054Z,3.90
2023-05-20T11:01:46.967Z,4.25
2023-05-20T11:03:49.906Z,3.80
2023-05-20T11:05:52.354Z,5.20
2023-05-20T11:08:13.722Z,4.43
2023-05-20T11:10:26.344Z,3.70
2023-05-20T11:12:28.521Z,3.70
2023-05-20T11:14:31.071Z,3.55
2023-05-20T11:16:33.063Z,3.47
2023-05-20T11:18:34.918Z,3.33
2023-05-20T11:20:36.882Z,3.53
2023-05-20T11:22:40.607Z,3.28
2023-05-20T11:24:49.139Z,2.90
2023-05-20T11:26:51.161Z,3.47
2023-05-20T11:28:53.268Z,3.20
2023-05-20T11:30:56.030Z,3.05
2023-05-20T11:32:59.596Z,3.10
2023-05-20T11:35:01.746Z,3.45
2023-05-20T11:37:08.211Z,2.60
2023-05-20T11:39:14.865Z,2.80
2023-05-20T11:41:16.705Z,3.08
2023-05-20T11:43:19.343Z,3.30
2023-05-20T11:47:28.756Z,3.50
2023-05-20T11:49:31.282Z,2.97
2023-05-20T11:51:33.063Z,3.40
2023-05-20T11:53:35.080Z,2.70
2023-05-20T11:55:56.167Z,3.30
2023-05-20T11:57:58.740Z,3.08
2023-05-20T12:00:01.325Z,2.85
2023-05-20T12:04:05.846Z,3.50
2023-05-20T12:06:07.780Z,3.00
2023-05-20T12:08:09.843Z,3.00
2023-05-20T12:10:13.742Z,3.20
2023-05-20T12:12:16.548Z,2.97
2023-05-20T12:14:18.532Z,3.03
2023-05-20T12:16:20.391Z,3.28
2023-05-20T12:18:22.836Z,3.20
2023-05-20T12:20:25.724Z,3.33
2023-05-20T12:22:27.694Z,3.72
2023-05-20T12:24:29.678Z,3.30
2023-05-20T12:26:31.627Z,3.40
2023-05-20T12:28:33.489Z,3.50
2023-05-20T12:30:35.593Z,4.07
2023-05-20T12:32:38.850Z,14.75
2023-05-20T12:34:41.019Z,4.50
2023-05-20T12:36:42.934Z,6.57
2023-05-20T12:38:44.842Z,6.30
2023-05-20T12:40:46.659Z,6.47
2023-05-20T12:42:48.448Z,4.47
2023-05-20T12:44:50.383Z,6.83
2023-05-20T12:46:52.498Z,6.18
2023-05-20T12:48:54.377Z,4.50
2023-05-20T12:50:56.330Z,5.23
2023-05-20T12:52:58.202Z,4.80
2023-05-20T12:55:00.064Z,4.40
2023-05-20T12:57:02.231Z,5.27
2023-05-20T12:59:04.075Z,5.20
2023-05-20T13:01:05.936Z,5.03
2023-05-20T13:03:07.958Z,5.78
2023-05-20T13:05:10.679Z,6.22
2023-05-20T13:09:14.350Z,5.22
2023-05-20T13:11:16.389Z,5.90
2023-05-20T13:13:21.651Z,6.38
2023-05-20T13:15:23.551Z,6.75
2023-05-20T13:17:25.519Z,5.80
2023-05-20T13:19:27.499Z,7.10
2023-05-20T13:21:29.444Z,6.53
2023-05-20T13:23:31.778Z,6.63
2023-05-20T13:25:33.674Z,6.07
2023-05-20T13:27:35.598Z,6.07
2023-05-20T13:29:37.441Z,6.15
2023-05-20T13:31:39.743Z,5.50
2023-05-20T13:33:41.529Z,5.68
2023-05-20T13:35:43.513Z,5.67
2023-05-20T13:37:45.496Z,6.32
2023-05-20T13:39:48.018Z,5.55
2023-05-20T13:41:49.987Z,6.10
2023-05-20T13:43:51.915Z,7.35
2023-05-20T13:45:57.099Z,6.97
2023-05-20T13:47:59.018Z,6.57
2023-05-20T13:50:02.870Z,6.90
2023-05-20T13:52:05.790Z,6.80
2023-05-20T13:54:07.597Z,6.40
2023-05-20T13:56:09.547Z,8.57
2023-05-20T13:58:11.387Z,6.97
2023-05-20T14:00:13.933Z,6.77
2023-05-20T14:02:16.106Z,7.20
2023-05-20T14:04:17.907Z,6.60
2023-05-20T14:06:19.752Z,6.90
2023-05-20T14:08:22.298Z,7.03
2023-05-20T14:10:24.182Z,6.57
2023-05-20T14:12:26.246Z,7.05
2023-05-20T14:14:28.116Z,7.72
2023-05-20T14:16:31.452Z,7.00
2023-05-20T14:18:33.420Z,7.57
2023-05-20T14:20:35.636Z,6.95
2023-05-20T14:22:37.714Z,7.50
2023-05-20T14:24:39.510Z,7.47
2023-05-20T14:26:41.457Z,7.77
2023-05-20T14:28:43.288Z,6.80
2023-05-20T14:30:45.102Z,6.82
2023-05-20T14:32:47.091Z,6.73
2023-05-20T14:34:48.997Z,7.18
2023-05-20T14:36:51.012Z,7.10
2023-05-20T14:38:52.952Z,7.05
2023-05-20T14:40:54.780Z,7.55
2023-05-20T14:42:56.594Z,8.10
2023-05-20T14:44:58.487Z,7.17
2023-05-20T14:47:00.432Z,6.70
2023-05-20T14:49:02.295Z,6.72
2023-05-20T14:51:04.322Z,6.90
2023-05-20T14:53:06.518Z,6.35
2023-05-20T14:55:08.434Z,6.55
2023-05-20T14:57:11.254Z,7.18
2023-05-20T14:59:13.174Z,6.22
2023-05-20T15:01:15.189Z,6.73
2023-05-20T15:03:17.181Z,6.10
2023-05-20T15:05:19.205Z,6.28
2023-05-20T15:07:21.384Z,6.40
2023-05-20T15:09:23.442Z,6.72
2023-05-20T15:11:25.322Z,6.20
2023-05-20T15:13:27.334Z,6.30
2023-05-20T15:15:29.251Z,6.22
2023-05-20T15:17:31.089Z,7.05
2023-05-20T15:19:33.026Z,6.55
2023-05-20T15:21:35.041Z,6.95
2023-05-20T15:23:36.889Z,6.47
2023-05-20T15:25:38.705Z,6.70
2023-05-20T15:27:42.230Z,6.60
2023-05-20T15:29:44.193Z,6.38
2023-05-20T15:31:46.620Z,7.07
2023-05-20T15:33:48.666Z,6.90
2023-05-20T15:35:50.648Z,6.55
2023-05-20T15:37:53.082Z,6.40
2023-05-20T15:39:54.930Z,6.32
2023-05-20T15:41:59.418Z,7.40
2023-05-20T15:44:01.493Z,6.57
2023-05-20T15:46:03.403Z,7.13
2023-05-20T15:48:05.427Z,7.13
2023-05-20T15:50:08.608Z,7.28
2023-05-20T15:52:10.715Z,7.25
2023-05-20T15:54:12.660Z,6.95
2023-05-20T15:56:14.545Z,6.85
2023-05-20T15:58:16.328Z,6.72
2023-05-20T16:00:22.183Z,6.73
2023-05-20T16:02:25.139Z,7.10
2023-05-20T16:04:27.230Z,6.90
2023-05-20T16:06:29.140Z,5.90
2023-05-20T16:08:30.919Z,6.90
2023-05-20T16:10:34.471Z,6.33
2023-05-20T16:12:36.854Z,6.57
2023-05-20T16:14:38.690Z,6.70
2023-05-20T16:16:40.668Z,7.47
2023-05-20T16:18:42.626Z,7.25
2023-05-20T16:20:44.458Z,7.67
2023-05-20T16:22:46.386Z,7.07
2023-05-20T16:24:48.202Z,6.60
2023-05-20T16:26:50.063Z,6.80
2023-05-20T16:28:51.906Z,7.00
2023-05-20T16:30:53.770Z,7.30
2023-05-20T16:32:55.897Z,6.68
2023-05-20T16:34:57.827Z,8.02
2023-05-20T16:36:59.750Z,8.15
2023-05-20T16:39:01.554Z,7.07
2023-05-20T16:41:03.417Z,9.70
2023-05-20T16:43:05.491Z,7.20
2023-05-20T16:45:08.002Z,7.35
2023-05-20T16:47:09.996Z,7.32
2023-05-20T16:49:11.869Z,9.18
2023-05-20T16:51:13.820Z,7.47
2023-05-20T16:53:16.610Z,7.55
2023-05-20T16:55:18.828Z,13.70
2023-05-20T16:57:20.903Z,8.38
2023-05-20T16:59:24.863Z,7.90
2023-05-20T17:01:28.953Z,7.90
2023-05-20T17:03:31.874Z,7.88
2023-05-20T17:05:33.874Z,8.25
2023-05-20T17:07:36.327Z,9.95
2023-05-20T17:09:38.281Z,8.15
2023-05-20T17:11:40.495Z,7.72
2023-05-20T17:13:42.460Z,8.05
2023-05-20T17:15:44.437Z,8.18
2023-05-20T17:17:46.408Z,8.02
2023-05-20T17:19:48.455Z,8.48
2023-05-20T17:21:50.555Z,8.60
2023-05-20T17:23:52.435Z,8.48
2023-05-20T17:25:54.362Z,8.60
2023-05-20T17:27:56.212Z,8.57
2023-05-20T17:29:59.687Z,8.20
2023-05-20T17:32:01.520Z,8.88
2023-05-20T17:34:03.375Z,7.93
2023-05-20T17:36:05.621Z,8.68
2023-05-20T17:38:07.480Z,8.65
2023-05-20T17:40:10.128Z,8.73
2023-05-20T17:44:13.774Z,8.75
2023-05-20T17:46:16.260Z,8.70
2023-05-20T17:48:18.523Z,8.48
2023-05-20T17:50:20.470Z,7.97
2023-05-20T17:52:22.424Z,8.55
2023-05-20T17:54:24.291Z,8.80
2023-05-20T17:56:26.834Z,8.88
2023-05-20T17:58:28.717Z,9.93
2023-05-20T18:00:30.729Z,7.87
2023-05-20T18:02:32.763Z,8.35
2023-05-20T18:04:34.791Z,8.60
2023-05-20T18:06:36.833Z,9.45
2023-05-20T18:08:38.795Z,8.82
2023-05-20T18:10:41.042Z,8.23
2023-05-20T18:12:43.120Z,9.30
2023-05-20T18:14:45.065Z,7.97
2023-05-20T18:16:46.867Z,8.75
2023-05-20T18:18:48.803Z,8.87
2023-05-20T18:20:50.993Z,8.60
2023-05-20T18:22:58.212Z,8.90
2023-05-20T18:25:00.264Z,8.48
2023-05-20T18:27:02.142Z,8.60
2023-05-20T18:29:04.138Z,8.93
2023-05-20T18:31:06.310Z,8.85
2023-05-20T18:33:08.268Z,9.20
2023-05-20T18:35:10.628Z,8.73
2023-05-20T18:37:12.524Z,8.77
2023-05-20T18:39:20.219Z,8.70
2023-05-20T18:41:27.093Z,8.63
2023-05-20T18:43:34.243Z,9.00
2023-05-20T18:45:36.184Z,9.30
2023-05-20T18:47:38.149Z,8.82
2023-05-20T18:49:39.979Z,8.88
2023-05-20T18:51:41.971Z,9.67
2023-05-20T18:53:43.792Z,9.63
2023-05-20T18:55:47.416Z,9.40
2023-05-20T18:57:49.404Z,9.43
2023-05-20T18:59:51.401Z,9.40
2023-05-20T19:01:53.367Z,9.65
2023-05-20T19:03:55.200Z,10.38
2023-05-20T19:05:57.256Z,9.33
2023-05-20T19:08:00.428Z,10.43
2023-05-20T19:10:03.269Z,9.25
2023-05-20T19:12:06.850Z,9.55
2023-05-20T19:14:08.724Z,9.57
2023-05-20T19:16:10.855Z,10.33
2023-05-20T19:18:14.191Z,10.43
2023-05-20T19:20:16.005Z,10.38
2023-05-20T19:22:17.927Z,10.10
2023-05-20T19:24:19.831Z,10.30
2023-05-20T19:26:22.100Z,10.00
2023-05-20T19:28:24.063Z,10.43
2023-05-20T19:30:25.948Z,11.13
2023-05-20T19:32:28.087Z,10.50
2023-05-20T19:34:30.121Z,10.75
2023-05-20T19:36:32.544Z,10.70
2023-05-20T19:38:34.562Z,11.05
2023-05-20T19:40:37.015Z,11.40
2023-05-20T19:42:38.920Z,11.10
2023-05-20T19:44:41.002Z,10.93
2023-05-20T19:46:43.047Z,11.02
2023-05-20T19:48:44.949Z,10.57
2023-05-20T19:50:46.962Z,11.00
2023-05-20T19:52:49.166Z,10.70
2023-05-20T19:54:51.090Z,10.75
2023-05-20T19:56:52.993Z,10.90
2023-05-20T19:58:55.051Z,11.60
2023-05-20T20:00:57.070Z,11.38
2023-05-20T20:02:59.935Z,11.18
2023-05-20T20:05:01.979Z,10.50
2023-05-20T20:07:04.100Z,11.02
2023-05-20T20:09:06.037Z,11.60
2023-05-20T20:11:08.148Z,11.13
2023-05-20T20:13:10.248Z,10.75
2023-05-20T20:15:12.176Z,11.15
2023-05-20T20:17:17.356Z,10.68
2023-05-20T20:19:22.976Z,11.07
2023-05-20T20:21:26.230Z,10.55
2023-05-20T20:23:28.110Z,11.50
2023-05-20T20:25:34.974Z,11.00
2023-05-20T20:27:37.077Z,10.27
2023-05-20T20:29:41.199Z,10.60
2023-05-20T20:31:43.080Z,10.45
2023-05-20T20:33:44.968Z,10.83
2023-05-20T20:35:46.906Z,10.73
2023-05-20T20:37:50.777Z,10.70
2023-05-20T20:39:53.147Z,9.80
2023-05-20T20:41:55.093Z,10.25
2023-05-20T20:43:57.005Z,11.65
2023-05-20T20:46:00.073Z,11.10
2023-05-20T20:48:04.741Z,11.88
2023-05-20T20:50:08.106Z,10.70
2023-05-20T20:52:10.107Z,10.35
2023-05-20T20:54:12.107Z,11.48
2023-05-20T20:56:14.016Z,10.32
2023-05-20T20:58:15.968Z,10.20
2023-05-20T21:00:20.979Z,11.33
2023-05-20T21:02:22.954Z,9.98
2023-05-20T21:04:27.746Z,10.40
2023-05-20T21:06:29.855Z,9.98
2023-05-20T21:08:31.943Z,10.77
2023-05-20T21:10:35.932Z,10.85
2023-05-20T21:12:37.757Z,10.68
2023-05-20T21:14:39.629Z,11.38
2023-05-20T21:16:43.050Z,13.53
2023-05-20T21:18:44.987Z,13.05
2023-05-20T21:20:46.913Z,12.30
2023-05-20T21:22:48.817Z,10.97
2023-05-20T21:24:50.672Z,11.00
2023-05-20T21:26:52.507Z,11.17
2023-05-20T21:28:54.353Z,10.23
2023-05-20T21:30:56.267Z,10.40
2023-05-20T21:32:58.155Z,11.43
2023-05-20T21:35:00.001Z,10.67
2023-05-20T21:37:01.820Z,10.90
2023-05-20T21:39:03.706Z,11.60
2023-05-20T21:41:05.729Z,10.63
2023-05-20T21:43:07.517Z,10.88
2023-05-20T21:45:10.215Z,10.63
2023-05-20T21:47:12.070Z,11.18
2023-05-20T21:49:13.939Z,11.73
2023-05-20T21:51:15.800Z,11.17
2023-05-20T21:53:17.884Z,10.38
2023-05-20T21:55:23.472Z,11.27
2023-05-20T21:57:25.465Z,11.10
2023-05-20T21:59:27.296Z,10.93
2023-05-20T22:01:29.152Z,11.50
2023-05-20T22:03:32.902Z,10.80
2023-05-20T22:05:35.175Z,10.57
2023-05-20T22:07:37.361Z,11.10
2023-05-20T22:09:39.705Z,10.55
2023-05-20T22:11:41.581Z,10.38
2023-05-20T22:13:44.369Z,10.97
2023-05-20T22:15:46.456Z,10.40
2023-05-20T22:17:48.342Z,11.23
2023-05-20T22:19:50.252Z,10.52
2023-05-20T22:21:52.023Z,11.03
2023-05-20T22:23:53.820Z,10.40
2023-05-20T22:25:55.966Z,10.20
2023-05-20T22:27:57.835Z,11.07
2023-05-20T22:29:59.736Z,10.97
2023-05-20T22:32:01.633Z,11.23
2023-05-20T22:34:04.589Z,11.07
2023-05-20T22:36:07.189Z,10.95
2023-05-20T22:38:09.007Z,10.95
2023-05-20T22:40:11.232Z,9.20
2023-05-20T22:42:13.052Z,10.65
2023-05-20T22:44:14.884Z,9.90
2023-05-20T22:46:16.768Z,10.20
2023-05-20T22:48:22.863Z,9.30
2023-05-20T22:50:26.269Z,9.95
2023-05-20T22:52:29.554Z,9.98
2023-05-20T22:54:31.376Z,9.57
2023-05-20T22:56:34.079Z,9.85
2023-05-20T23:00:41.802Z,9.40
2023-05-20T23:02:45.717Z,9.30
2023-05-20T23:04:48.072Z,9.18
2023-05-20T23:06:53.548Z,8.82
2023-05-20T23:08:55.610Z,9.77
2023-05-20T23:10:57.398Z,9.70
2023-05-20T23:12:59.177Z,9.55
2023-05-20T23:15:01.222Z,9.15
2023-05-20T23:17:03.189Z,8.77
2023-05-20T23:19:05.057Z,9.10
2023-05-20T23:21:07.328Z,9.30
2023-05-20T23:23:11.537Z,8.95
2023-05-20T23:25:13.610Z,9.70
2023-05-20T23:27:15.750Z,9.30
2023-05-20T23:29:17.516Z,9.55
2023-05-20T23:31:19.303Z,8.63
2023-05-20T23:33:25.059Z,9.03
2023-05-20T23:35:27.567Z,8.68
2023-05-20T23:37:29.378Z,8.75
2023-05-20T23:39:31.157Z,8.65
2023-05-20T23:41:32.941Z,8.68
2023-05-20T23:43:34.746Z,9.98
2023-05-20T23:45:36.702Z,8.67
2023-05-20T23:47:38.819Z,9.70
2023-05-20T23:49:41.671Z,8.80
2023-05-20T23:51:43.516Z,9.27
2023-05-20T23:53:45.422Z,8.43
2023-05-20T23:55:49.484Z,8.65
2023-05-20T23:57:51.301Z,7.95
2023-05-20T23:59:53.117Z,9.05
